Time;durP1;ratioP1;P1;durP2;ratioP2;P2;SDS_P1;SDS_P2;PMS_P1;PMS_P2;Temp;Humidity;BMP_temperature;BMP_pressure;BME280_temperature;BME280_humidity;BME280_pressure;Samples;Min_cycle;Max_cycle;Signal;HPM_P1;HPM_P2
2022/07/20 00:00:27;;;;;;;0.70;0.70;;;25.10;99.70;;;;;;5063905;28;20185;-81
2022/07/20 00:02:52;;;;;;;0.60;0.60;;;25.10;99.50;;;;;;5063906;28;20642;-80
2022/07/20 00:05:18;;;;;;;0.40;0.40;;;25.10;99.60;;;;;;5085346;28;20205;-81
2022/07/20 00:07:43;;;;;;;0.70;0.60;;;25.10;99.70;;;;;;5063195;28;20193;-81
2022/07/20 00:12:53;;;;;;;0.43;0.40;;;25.00;99.90;;;;;;5068838;28;20254;-80
2022/07/20 00:15:19;;;;;;;1.27;1.17;;;24.90;99.90;;;;;;5070372;28;20241;-81
2022/07/20 00:17:44;;;;;;;0.73;0.73;;;24.90;99.90;;;;;;5064723;28;20184;-81
2022/07/20 00:20:10;;;;;;;0.53;0.53;;;24.90;99.90;;;;;;5064100;28;20173;-81
2022/07/20 00:22:37;;;;;;;0.53;0.53;;;24.90;99.90;;;;;;5071247;28;20641;-81
2022/07/20 00:25:03;;;;;;;0.67;0.57;;;24.90;99.90;;;;;;5060480;28;20221;-81
2022/07/20 00:27:29;;;;;;;0.60;0.50;;;24.90;99.90;;;;;;5066033;28;20181;-81
2022/07/20 00:29:54;;;;;;;1.13;1.00;;;24.80;99.90;;;;;;5064569;28;20201;-81
2022/07/20 00:32:20;;;;;;;0.40;0.40;;;24.70;99.90;;;;;;5072409;28;20212;-81
2022/07/20 00:34:45;;;;;;;0.50;0.50;;;24.50;99.90;;;;;;5063359;28;20287;-81
2022/07/20 00:37:11;;;;;;;0.67;0.43;;;24.40;99.90;;;;;;5068196;28;20208;-81
2022/07/20 00:39:37;;;;;;;0.40;0.40;;;24.40;99.90;;;;;;5071117;28;20200;-81
2022/07/20 00:42:02;;;;;;;0.40;0.40;;;24.50;99.90;;;;;;5063178;28;20203;-81
2022/07/20 00:44:28;;;;;;;0.50;0.50;;;24.50;99.90;;;;;;5067441;28;20188;-81
2022/07/20 00:46:55;;;;;;;1.60;0.97;;;24.30;99.90;;;;;;5066012;28;20192;-81
2022/07/20 00:49:21;;;;;;;0.70;0.70;;;24.40;99.90;;;;;;5069845;28;20768;-81
2022/07/20 00:51:47;;;;;;;0.97;0.93;;;24.30;99.90;;;;;;5064439;28;20439;-81
2022/07/20 00:54:13;;;;;;;0.53;0.53;;;24.20;99.90;;;;;;5068277;28;20232;-81
2022/07/20 00:56:39;;;;;;;0.70;0.70;;;24.10;99.90;;;;;;5068247;28;20181;-81
2022/07/20 00:59:06;;;;;;;1.73;0.50;;;24.10;99.90;;;;;;5061948;28;20221;-81
2022/07/20 01:01:32;;;;;;;0.43;0.43;;;24.10;99.90;;;;;;5064562;28;20181;-81
2022/07/20 01:03:58;;;;;;;0.70;0.53;;;24.10;99.90;;;;;;5064303;28;20177;-81
2022/07/20 01:06:24;;;;;;;0.50;0.50;;;23.90;99.90;;;;;;5080397;28;20199;-81
2022/07/20 01:08:50;;;;;;;0.70;0.70;;;23.90;99.90;;;;;;5067936;28;20303;-81
2022/07/20 01:11:16;;;;;;;1.03;0.70;;;23.90;99.90;;;;;;5058692;28;20178;-81
2022/07/20 01:13:42;;;;;;;0.87;0.80;;;23.80;99.90;;;;;;5063146;28;20209;-81
2022/07/20 01:16:07;;;;;;;0.50;0.50;;;23.80;99.90;;;;;;5065421;28;20197;-81
2022/07/20 01:18:33;;;;;;;0.87;0.60;;;23.80;99.90;;;;;;5066288;28;20243;-81
2022/07/20 01:21:04;;;;;;;0.70;0.70;;;23.80;99.90;;;;;;5070233;28;20212;-81
2022/07/20 01:23:30;;;;;;;0.50;0.50;;;23.80;99.90;;;;;;5060234;28;20728;-81
2022/07/20 01:25:56;;;;;;;0.47;0.47;;;23.70;99.90;;;;;;5066498;28;20185;-81
2022/07/20 01:28:23;;;;;;;0.50;0.50;;;23.50;99.90;;;;;;5060156;28;20208;-81
2022/07/20 01:30:49;;;;;;;1.00;1.00;;;23.40;99.90;;;;;;5069014;28;20194;-80
2022/07/20 01:33:14;;;;;;;0.33;0.33;;;23.30;99.90;;;;;;5062286;28;20201;-81
2022/07/20 01:35:40;;;;;;;1.43;0.63;;;23.40;99.90;;;;;;5060210;28;20181;-81
2022/07/20 01:38:05;;;;;;;0.83;0.83;;;23.30;99.90;;;;;;5069493;28;20196;-81
2022/07/20 01:40:31;;;;;;;0.50;0.50;;;23.30;99.90;;;;;;5061764;28;20190;-80
2022/07/20 01:42:57;;;;;;;0.67;0.63;;;23.30;99.90;;;;;;5058577;28;20690;-81
2022/07/20 01:45:23;;;;;;;0.53;0.53;;;23.30;99.90;;;;;;5068100;28;20855;-81
2022/07/20 01:47:48;;;;;;;0.87;0.63;;;23.30;99.90;;;;;;5066219;28;20235;-81
2022/07/20 01:50:14;;;;;;;0.40;0.40;;;23.30;99.90;;;;;;5068498;28;20188;-81
2022/07/20 01:52:39;;;;;;;0.43;0.43;;;23.30;99.90;;;;;;5062820;28;20180;-81
2022/07/20 01:55:05;;;;;;;0.40;0.40;;;23.40;99.90;;;;;;5079422;28;20300;-81
2022/07/20 01:57:31;;;;;;;0.30;0.30;;;23.40;99.90;;;;;;5069517;28;20634;-82
2022/07/20 01:59:57;;;;;;;0.77;0.67;;;23.40;99.90;;;;;;5070421;28;20242;-81
2022/07/20 02:02:22;;;;;;;0.57;0.50;;;23.40;99.90;;;;;;5064163;28;20564;-81
2022/07/20 02:04:48;;;;;;;0.20;0.20;;;23.50;99.90;;;;;;5071717;28;20199;-81
2022/07/20 02:07:14;;;;;;;1.03;0.97;;;23.40;99.90;;;;;;5061594;28;20193;-81
2022/07/20 02:09:39;;;;;;;0.40;0.40;;;23.50;99.90;;;;;;5063228;28;20208;-81
2022/07/20 02:12:05;;;;;;;0.67;0.60;;;23.50;99.90;;;;;;5066822;28;20185;-81
2022/07/20 02:14:31;;;;;;;0.43;0.43;;;23.40;99.90;;;;;;5064765;28;20205;-80
2022/07/20 02:16:56;;;;;;;0.60;0.60;;;23.40;99.90;;;;;;5069855;28;20209;-81
2022/07/20 02:19:22;;;;;;;1.20;0.87;;;23.40;99.90;;;;;;5070396;28;20196;-81
2022/07/20 02:21:47;;;;;;;0.50;0.50;;;23.40;99.90;;;;;;5062661;28;20661;-81
2022/07/20 02:24:13;;;;;;;2.30;0.67;;;23.40;99.90;;;;;;5066081;28;20189;-81
2022/07/20 02:26:38;;;;;;;0.40;0.40;;;23.40;99.90;;;;;;5069164;28;20197;-80
2022/07/20 02:29:04;;;;;;;1.57;0.97;;;23.30;99.90;;;;;;5056747;28;20209;-80
2022/07/20 02:31:30;;;;;;;0.60;0.60;;;23.20;99.90;;;;;;5072480;28;20188;-80
2022/07/20 02:33:55;;;;;;;0.67;0.43;;;23.10;99.90;;;;;;5070127;28;20205;-81
2022/07/20 02:36:21;;;;;;;0.50;0.50;;;23.10;99.90;;;;;;5069574;28;20207;-81
2022/07/20 02:38:46;;;;;;;1.00;0.60;;;22.80;99.90;;;;;;5070717;28;20205;-81
2022/07/20 02:41:12;;;;;;;0.53;0.53;;;22.70;99.90;;;;;;5067555;28;20264;-81
2022/07/20 02:43:38;;;;;;;0.70;0.70;;;22.80;99.90;;;;;;5062882;28;20277;-81
2022/07/20 02:46:04;;;;;;;0.50;0.50;;;22.80;99.90;;;;;;5063392;28;20247;-80
2022/07/20 02:48:29;;;;;;;0.30;0.30;;;22.90;99.90;;;;;;5062682;28;20663;-81
2022/07/20 02:50:55;;;;;;;0.50;0.50;;;22.90;99.90;;;;;;5065279;28;20264;-81
2022/07/20 02:53:21;;;;;;;0.40;0.40;;;23.10;99.90;;;;;;5065047;28;20220;-81
2022/07/20 02:55:46;;;;;;;0.53;0.30;;;23.10;99.90;;;;;;5069231;28;20289;-80
2022/07/20 02:58:12;;;;;;;0.43;0.43;;;23.20;99.90;;;;;;5065812;28;20658;-80
2022/07/20 03:00:39;;;;;;;0.53;0.43;;;23.20;99.90;;;;;;5069053;28;20192;-81
2022/07/20 03:03:05;;;;;;;0.40;0.40;;;23.10;99.90;;;;;;5065166;28;20185;-81
2022/07/20 03:05:32;;;;;;;0.67;0.60;;;23.00;99.90;;;;;;5066866;28;20272;-81
2022/07/20 03:07:57;;;;;;;1.47;0.83;;;22.80;99.90;;;;;;5064723;28;20185;-80
2022/07/20 03:10:23;;;;;;;0.57;0.57;;;22.70;99.90;;;;;;5065713;28;20251;-80
2022/07/20 03:12:49;;;;;;;0.50;0.50;;;22.60;99.90;;;;;;5059081;28;20301;-81
2022/07/20 03:15:14;;;;;;;0.70;0.70;;;22.60;99.90;;;;;;5070598;28;20184;-80
2022/07/20 03:17:45;;;;;;;0.20;0.20;;;22.60;99.90;;;;;;5069730;28;20669;-80
2022/07/20 03:20:13;;;;;;;0.50;0.50;;;22.70;99.90;;;;;;5069121;28;20180;-80
2022/07/20 03:22:39;;;;;;;0.50;0.50;;;22.60;99.90;;;;;;5059919;28;20174;-80
2022/07/20 03:25:05;;;;;;;0.70;0.63;;;22.50;99.90;;;;;;5069766;28;20223;-81
2022/07/20 03:27:31;;;;;;;0.60;0.60;;;22.40;99.90;;;;;;5064462;28;20178;-81
2022/07/20 03:29:56;;;;;;;0.67;0.67;;;22.40;99.90;;;;;;5064852;28;20201;-81
2022/07/20 03:32:22;;;;;;;0.30;0.30;;;22.40;99.90;;;;;;5056954;28;20174;-80
2022/07/20 03:34:47;;;;;;;0.40;0.40;;;22.50;99.90;;;;;;5064490;28;20196;-81
2022/07/20 03:37:13;;;;;;;0.30;0.30;;;22.60;99.90;;;;;;5071160;28;20177;-81
2022/07/20 03:39:38;;;;;;;0.37;0.37;;;22.80;99.90;;;;;;5068711;28;20227;-80
2022/07/20 03:42:04;;;;;;;0.47;0.47;;;22.80;99.90;;;;;;5068086;28;20214;-81
2022/07/20 03:44:29;;;;;;;0.80;0.43;;;22.90;99.90;;;;;;5066688;28;21204;-81
2022/07/20 03:46:55;;;;;;;0.33;0.33;;;23.00;99.90;;;;;;5062181;28;20197;-81
2022/07/20 03:49:21;;;;;;;0.73;0.73;;;22.90;99.90;;;;;;5070391;28;20224;-80
2022/07/20 03:51:46;;;;;;;3.43;0.73;;;22.60;99.90;;;;;;5069250;28;20181;-81
2022/07/20 03:54:12;;;;;;;0.37;0.37;;;22.40;99.90;;;;;;5064928;28;20250;-80
2022/07/20 03:56:39;;;;;;;0.47;0.47;;;22.40;99.90;;;;;;5067989;28;20181;-81
2022/07/20 03:59:11;;;;;;;1.10;1.10;;;22.80;99.90;;;;;;5053937;28;20198;-81
2022/07/20 04:01:37;;;;;;;1.97;0.93;;;22.90;99.90;;;;;;5066800;28;20743;-81
2022/07/20 04:04:04;;;;;;;0.67;0.67;;;22.70;99.90;;;;;;5069707;28;20193;-81
2022/07/20 04:06:29;;;;;;;0.53;0.53;;;23.10;99.90;;;;;;5064785;28;20200;-81
2022/07/20 04:08:55;;;;;;;0.30;0.30;;;23.70;99.90;;;;;;5062588;28;20209;-81
2022/07/20 04:11:21;;;;;;;0.77;0.40;;;23.70;99.90;;;;;;5071767;28;20188;-81
2022/07/20 04:13:47;;;;;;;0.83;0.50;;;24.00;99.90;;;;;;5066145;28;20209;-81
2022/07/20 04:16:12;;;;;;;0.40;0.40;;;24.70;99.90;;;;;;5069411;28;20203;-81
2022/07/20 04:18:38;;;;;;;0.60;0.60;;;25.80;99.90;;;;;;5068078;28;20209;-81
2022/07/20 04:21:04;;;;;;;0.47;0.47;;;26.10;99.90;;;;;;5067961;28;20188;-81
2022/07/20 04:23:29;;;;;;;0.50;0.50;;;26.10;99.90;;;;;;5067983;28;20211;-81
2022/07/20 04:25:55;;;;;;;0.33;0.33;;;26.20;99.90;;;;;;5068554;28;20212;-80
2022/07/20 04:28:20;;;;;;;0.77;0.67;;;26.40;99.90;;;;;;5069501;28;20254;-80
2022/07/20 04:30:46;;;;;;;0.37;0.30;;;26.40;99.90;;;;;;5068246;28;20185;-81
2022/07/20 04:33:11;;;;;;;0.40;0.40;;;26.20;99.90;;;;;;5068515;28;20209;-81
2022/07/20 04:35:37;;;;;;;0.40;0.40;;;25.80;99.90;;;;;;5068434;28;20189;-81
2022/07/20 04:38:03;;;;;;;0.70;0.50;;;25.50;99.90;;;;;;5068250;28;20181;-81
2022/07/20 04:40:28;;;;;;;0.77;0.77;;;25.00;99.90;;;;;;5061336;28;20184;-81
2022/07/20 04:42:54;;;;;;;2.40;0.50;;;24.50;99.90;;;;;;5065655;28;20181;-80
2022/07/20 04:45:20;;;;;;;1.00;1.00;;;24.10;99.90;;;;;;5060877;28;20633;-80
2022/07/20 04:47:47;;;;;;;1.10;0.83;;;23.80;99.90;;;;;;5059713;28;20177;-80
2022/07/20 04:50:13;;;;;;;0.80;0.80;;;23.60;99.90;;;;;;5066240;28;20663;-81
2022/07/20 04:52:39;;;;;;;0.83;0.50;;;23.50;99.90;;;;;;5066212;28;20178;-81
2022/07/20 04:55:05;;;;;;;1.23;0.70;;;23.60;99.90;;;;;;5069597;28;20704;-81
2022/07/20 04:57:30;;;;;;;0.50;0.50;;;23.80;99.90;;;;;;5065384;28;20173;-81
2022/07/20 04:59:56;;;;;;;0.80;0.80;;;24.00;99.90;;;;;;5070566;28;20205;-81
2022/07/20 05:02:21;;;;;;;0.70;0.70;;;24.20;99.90;;;;;;5070331;28;21041;-81
2022/07/20 05:04:47;;;;;;;0.57;0.57;;;24.40;99.90;;;;;;5063310;28;20276;-81
2022/07/20 05:07:13;;;;;;;0.60;0.47;;;24.60;99.90;;;;;;5066474;28;20208;-81
2022/07/20 05:09:40;;;;;;;0.63;0.63;;;24.80;99.90;;;;;;5064092;28;20217;-81
2022/07/20 05:12:06;;;;;;;0.63;0.63;;;25.00;99.90;;;;;;5062133;28;20276;-81
2022/07/20 05:14:31;;;;;;;0.40;0.40;;;25.20;99.90;;;;;;5062198;28;20288;-80
2022/07/20 05:16:57;;;;;;;0.20;0.20;;;25.20;99.90;;;;;;5069642;28;20185;-81
2022/07/20 05:19:22;;;;;;;0.80;0.80;;;25.30;99.90;;;;;;5063442;28;20205;-81
2022/07/20 05:21:48;;;;;;;0.50;0.50;;;25.40;99.90;;;;;;5069825;28;20192;-80
2022/07/20 05:24:14;;;;;;;0.50;0.50;;;25.20;99.90;;;;;;5072092;28;20273;-80
2022/07/20 05:26:39;;;;;;;1.40;1.07;;;25.10;99.90;;;;;;5066851;28;20185;-80
2022/07/20 05:29:05;;;;;;;1.30;1.20;;;25.20;99.90;;;;;;5069483;28;20216;-80
2022/07/20 05:31:30;;;;;;;0.60;0.50;;;25.30;99.90;;;;;;5066413;28;20181;-80
2022/07/20 05:33:56;;;;;;;0.50;0.50;;;25.40;99.90;;;;;;5065650;28;20212;-80
2022/07/20 05:36:22;;;;;;;0.90;0.50;;;25.50;99.90;;;;;;5063812;28;20201;-80
2022/07/20 05:38:47;;;;;;;3.60;1.13;;;25.50;99.90;;;;;;5072893;28;20220;-80
2022/07/20 05:41:13;;;;;;;0.80;0.80;;;25.50;99.90;;;;;;5068320;28;20197;-80
2022/07/20 05:43:38;;;;;;;0.80;0.80;;;25.50;99.90;;;;;;5068128;28;20199;-80
2022/07/20 05:46:04;;;;;;;0.70;0.70;;;25.90;99.90;;;;;;5061945;28;20542;-80
2022/07/20 05:48:32;;;;;;;1.20;1.10;;;26.20;99.90;;;;;;5070731;28;20592;-80
2022/07/20 05:50:57;;;;;;;0.30;0.30;;;26.50;99.90;;;;;;5065876;28;20181;-80
2022/07/20 05:53:23;;;;;;;0.60;0.60;;;26.80;99.90;;;;;;5067205;28;20212;-80
2022/07/20 05:55:48;;;;;;;0.73;0.63;;;27.00;99.90;;;;;;5070679;28;20200;-80
2022/07/20 05:58:14;;;;;;;0.95;0.95;;;27.10;99.90;;;;;;5070630;28;20682;-80
2022/07/20 06:00:40;;;;;;;0.30;0.30;;;27.10;99.90;;;;;;5073031;28;20221;-80
2022/07/20 06:03:07;;;;;;;0.80;0.77;;;27.10;99.90;;;;;;5073280;28;20181;-80
2022/07/20 06:05:33;;;;;;;0.38;0.38;;;27.30;99.90;;;;;;5076057;28;20653;-80
2022/07/20 06:08:02;;;;;;;0.32;0.32;;;27.50;99.90;;;;;;5072596;28;20550;-80
2022/07/20 06:10:30;;;;;;;0.98;0.98;;;27.50;99.90;;;;;;5071510;28;20189;-80
2022/07/20 06:12:56;;;;;;;0.60;0.60;;;27.40;99.90;;;;;;5071831;28;20630;-80
2022/07/20 06:15:25;;;;;;;0.70;0.70;;;27.40;99.90;;;;;;5090222;28;20200;-80
2022/07/20 06:17:51;;;;;;;1.58;1.48;;;27.60;99.90;;;;;;5072772;28;20650;-80
2022/07/20 06:20:17;;;;;;;0.52;0.52;;;27.60;99.90;;;;;;5074323;28;20264;-81
2022/07/20 06:22:44;;;;;;;1.75;0.70;;;27.70;99.90;;;;;;5073656;28;20208;-81
2022/07/20 06:25:13;;;;;;;0.75;0.75;;;27.70;99.90;;;;;;5076040;28;20645;-80
2022/07/20 06:27:39;;;;;;;0.45;0.45;;;27.80;99.90;;;;;;5072916;28;20197;-80
2022/07/20 06:30:06;;;;;;;0.55;0.55;;;27.90;99.90;;;;;;5068747;28;20209;-79
2022/07/20 06:32:32;;;;;;;0.75;0.68;;;28.20;99.90;;;;;;5069289;28;20275;-80
2022/07/20 06:34:58;;;;;;;0.82;0.82;;;28.40;99.80;;;;;;5068417;28;20653;-80
2022/07/20 06:37:23;;;;;;;1.83;1.40;;;28.60;99.60;;;;;;5073750;28;20264;-80
2022/07/20 06:39:49;;;;;;;0.90;0.60;;;28.70;99.60;;;;;;5068832;28;20216;-81
2022/07/20 06:42:16;;;;;;;2.17;1.98;;;28.90;99.60;;;;;;5060231;28;20181;-81
2022/07/20 06:44:42;;;;;;;1.00;0.63;;;29.00;98.90;;;;;;5071061;28;20184;-80
2022/07/20 06:47:07;;;;;;;0.47;0.47;;;29.10;99.00;;;;;;5062039;28;20309;-81
2022/07/20 06:49:33;;;;;;;1.30;0.68;;;29.30;99.30;;;;;;5068071;28;20217;-81
2022/07/20 06:51:59;;;;;;;1.45;1.23;;;29.40;98.70;;;;;;5068584;28;20235;-81
2022/07/20 06:54:25;;;;;;;0.98;0.70;;;28.90;98.30;;;;;;5067195;28;20193;-81
2022/07/20 06:56:51;;;;;;;0.80;0.80;;;29.10;99.10;;;;;;5073841;28;20181;-81
2022/07/20 06:59:16;;;;;;;0.85;0.85;;;29.00;98.80;;;;;;5069382;28;21201;-81
2022/07/20 07:01:42;;;;;;;0.90;0.50;;;29.30;98.90;;;;;;5071233;28;20192;-81
2022/07/20 07:04:07;;;;;;;0.90;0.77;;;29.40;98.50;;;;;;5063416;28;20572;-81
2022/07/20 07:06:33;;;;;;;0.65;0.65;;;29.70;98.90;;;;;;5069325;28;20193;-81
2022/07/20 07:08:59;;;;;;;1.30;0.82;;;29.70;97.90;;;;;;5071540;28;20208;-81
2022/07/20 07:11:25;;;;;;;2.53;0.98;;;29.80;98.40;;;;;;5067651;28;20185;-80
2022/07/20 07:13:51;;;;;;;1.75;0.85;;;30.10;98.50;;;;;;5066984;28;20258;-81
2022/07/20 07:16:16;;;;;;;0.70;0.70;;;30.10;97.80;;;;;;5066403;28;20699;-81
2022/07/20 07:18:42;;;;;;;0.63;0.63;;;30.10;97.70;;;;;;5065343;28;20584;-80
2022/07/20 07:21:07;;;;;;;0.60;0.60;;;30.30;97.60;;;;;;5082986;28;20220;-80
2022/07/20 07:23:33;;;;;;;1.25;0.80;;;30.20;98.10;;;;;;5069112;28;20563;-80
2022/07/20 07:25:58;;;;;;;0.90;0.80;;;30.40;97.90;;;;;;5068856;28;21812;-80
2022/07/20 07:28:24;;;;;;;0.80;0.80;;;30.80;97.70;;;;;;5068597;28;20962;-80
2022/07/20 07:30:50;;;;;;;0.47;0.47;;;31.00;97.10;;;;;;5071317;28;20199;-80
2022/07/20 07:33:16;;;;;;;0.68;0.68;;;31.10;97.00;;;;;;5065874;28;20213;-79
2022/07/20 07:35:42;;;;;;;3.22;1.77;;;31.00;97.00;;;;;;5068935;28;20185;-79
2022/07/20 07:38:08;;;;;;;1.38;0.70;;;31.30;97.10;;;;;;5071462;28;20201;-79
2022/07/20 07:40:33;;;;;;;2.63;0.93;;;31.20;96.60;;;;;;5070975;28;20181;-79
2022/07/20 07:42:59;;;;;;;0.50;0.50;;;31.20;96.90;;;;;;5069852;28;20181;-80
2022/07/20 07:45:24;;;;;;;1.17;0.77;;;31.30;96.90;;;;;;5072088;28;20192;-80
2022/07/20 07:47:50;;;;;;;0.85;0.85;;;31.00;97.10;;;;;;5066433;28;20646;-80
2022/07/20 07:50:16;;;;;;;0.88;0.88;;;31.30;97.10;;;;;;5062257;28;20182;-80
2022/07/20 07:52:41;;;;;;;1.35;0.80;;;31.40;96.70;;;;;;5069409;28;20189;-80
2022/07/20 07:55:08;;;;;;;0.68;0.55;;;31.10;96.60;;;;;;5064175;28;20312;-80
2022/07/20 07:57:34;;;;;;;1.98;1.52;;;31.30;96.80;;;;;;5064659;28;20732;-80
2022/07/20 07:59:59;;;;;;;1.08;0.98;;;31.20;96.80;;;;;;5067228;28;20220;-80
2022/07/20 08:02:25;;;;;;;0.75;0.75;;;31.60;96.70;;;;;;5071547;28;20173;-80
2022/07/20 08:04:50;;;;;;;0.85;0.40;;;31.70;96.70;;;;;;5070401;28;20212;-80
2022/07/20 08:07:16;;;;;;;1.00;0.90;;;31.60;97.30;;;;;;5068638;28;20219;-80
2022/07/20 08:09:42;;;;;;;0.98;0.95;;;31.90;96.60;;;;;;5069838;28;20689;-80
2022/07/20 08:12:08;;;;;;;1.52;0.98;;;32.20;96.40;;;;;;5070303;28;20204;-81
2022/07/20 08:14:33;;;;;;;1.13;0.80;;;32.10;96.50;;;;;;5070817;28;20208;-79
2022/07/20 08:16:59;;;;;;;0.50;0.50;;;32.40;96.30;;;;;;5063683;28;20182;-80
2022/07/20 08:19:24;;;;;;;0.57;0.57;;;32.30;96.30;;;;;;5066833;28;20250;-79
2022/07/20 08:21:50;;;;;;;0.75;0.75;;;32.20;96.50;;;;;;5068384;28;20184;-79
2022/07/20 08:24:16;;;;;;;2.00;1.85;;;32.30;96.20;;;;;;5070458;28;20584;-79
2022/07/20 08:26:42;;;;;;;0.60;0.60;;;32.50;96.00;;;;;;5065837;28;20204;-79
2022/07/20 08:29:08;;;;;;;0.70;0.70;;;32.70;96.00;;;;;;5068007;28;20564;-79
2022/07/20 08:31:34;;;;;;;0.70;0.70;;;33.00;96.20;;;;;;5067685;28;20234;-79
2022/07/20 08:33:59;;;;;;;0.65;0.60;;;33.10;95.90;;;;;;5061410;28;20572;-80
2022/07/20 08:36:25;;;;;;;0.82;0.70;;;33.20;95.70;;;;;;5066586;28;20258;-79
2022/07/20 08:38:51;;;;;;;1.35;1.20;;;33.20;95.50;;;;;;5071184;28;20276;-80
2022/07/20 08:41:17;;;;;;;0.60;0.60;;;33.20;95.20;;;;;;5069573;28;20177;-80
2022/07/20 08:43:42;;;;;;;0.80;0.80;;;33.20;95.40;;;;;;5070461;28;20623;-80
2022/07/20 08:46:08;;;;;;;1.38;0.70;;;33.20;95.40;;;;;;5068020;28;20182;-80
2022/07/20 08:48:35;;;;;;;1.75;1.65;;;33.30;95.50;;;;;;5072188;28;20212;-80
2022/07/20 08:51:01;;;;;;;1.40;0.52;;;33.30;95.40;;;;;;5068943;28;20274;-80
2022/07/20 08:53:26;;;;;;;0.70;0.70;;;33.50;95.50;;;;;;5066179;28;20200;-80
2022/07/20 08:55:52;;;;;;;0.50;0.50;;;33.50;95.30;;;;;;5070314;28;20268;-80
2022/07/20 08:58:18;;;;;;;3.33;2.05;;;33.50;95.40;;;;;;5066573;28;20204;-80
2022/07/20 09:00:44;;;;;;;1.00;0.90;;;33.60;95.40;;;;;;5066561;28;20223;-80
2022/07/20 09:03:11;;;;;;;1.15;1.02;;;33.70;95.20;;;;;;5071360;28;20181;-80
2022/07/20 09:05:39;;;;;;;2.80;1.08;;;33.80;95.20;;;;;;5070984;28;20208;-80
2022/07/20 09:08:06;;;;;;;0.47;0.47;;;33.90;94.80;;;;;;5070223;28;20177;-80
2022/07/20 09:10:33;;;;;;;0.75;0.75;;;33.60;95.30;;;;;;5070827;28;20676;-80
2022/07/20 09:13:05;;;;;;;1.10;1.00;;;33.50;94.80;;;;;;5072212;28;20221;-80
2022/07/20 09:15:36;;;;;;;1.20;1.13;;;33.60;95.00;;;;;;5083258;28;20185;-80
2022/07/20 09:18:08;;;;;;;0.73;0.73;;;33.70;95.20;;;;;;5073882;28;20575;-80
2022/07/20 09:20:35;;;;;;;1.10;1.02;;;34.00;95.10;;;;;;5067618;28;20185;-80
2022/07/20 09:23:21;;;;;;;6.32;1.38;;;34.20;95.40;;;;;;5071596;28;20181;-79
2022/07/20 09:26:05;;;;;;;1.67;1.55;;;34.20;95.00;;;;;;5073156;28;20219;-80
2022/07/20 09:28:38;;;;;;;2.05;1.95;;;34.10;95.20;;;;;;5059160;28;20205;-80
2022/07/20 09:31:21;;;;;;;1.05;0.90;;;33.80;95.50;;;;;;5062863;28;20186;-80
2022/07/20 09:33:54;;;;;;;1.13;0.90;;;34.10;94.90;;;;;;5067901;28;20208;-80
2022/07/20 09:36:24;;;;;;;1.02;0.90;;;34.60;95.20;;;;;;5062624;28;20227;-80
2022/07/20 09:38:50;;;;;;;1.02;1.02;;;35.20;94.90;;;;;;5070351;28;20204;-80
2022/07/20 09:41:28;;;;;;;0.60;0.60;;;34.60;94.60;;;;;;5074690;28;20846;-80
2022/07/20 09:43:55;;;;;;;0.50;0.50;;;35.20;94.90;;;;;;5070838;28;20740;-82
2022/07/20 09:46:26;;;;;;;1.02;1.02;;;35.20;94.60;;;;;;5085288;28;20185;-80
2022/07/20 09:48:54;;;;;;;0.63;0.63;;;34.80;94.40;;;;;;5065080;28;20220;-80
2022/07/20 09:51:31;;;;;;;2.60;1.10;;;34.70;94.40;;;;;;5075812;28;20208;-80
2022/07/20 09:54:04;;;;;;;1.27;1.20;;;34.40;94.40;;;;;;5085856;28;20213;-80
2022/07/20 09:56:32;;;;;;;0.65;0.65;;;34.10;94.60;;;;;;5073134;28;20188;-80
2022/07/20 09:59:00;;;;;;;0.98;0.98;;;34.40;94.50;;;;;;5070274;28;20220;-80
2022/07/20 10:01:27;;;;;;;2.28;2.17;;;34.60;95.10;;;;;;5076127;28;20260;-80
2022/07/20 10:03:55;;;;;;;0.73;0.65;;;35.00;94.60;;;;;;5070224;28;20279;-80
2022/07/20 10:06:22;;;;;;;0.98;0.98;;;35.30;94.70;;;;;;5074846;28;20378;-80
2022/07/20 10:08:49;;;;;;;0.98;0.98;;;35.20;94.10;;;;;;5091719;28;20252;-80
2022/07/20 10:11:16;;;;;;;0.90;0.90;;;35.50;93.90;;;;;;5071166;28;20231;-80
2022/07/20 10:13:43;;;;;;;0.43;0.43;;;35.80;94.10;;;;;;5072403;28;20213;-81
2022/07/20 10:16:30;;;;;;;2.05;0.77;;;36.00;94.30;;;;;;5066904;28;20315;-80
2022/07/20 10:18:57;;;;;;;0.88;0.70;;;36.30;93.90;;;;;;5074879;28;20580;-80
2022/07/20 10:21:37;;;;;;;0.70;0.70;;;36.50;93.90;;;;;;5063971;28;20185;-80
2022/07/20 10:24:31;;;;;;;1.10;1.00;;;36.50;94.30;;;;;;5072357;28;20661;-80
2022/07/20 10:27:03;;;;;;;0.80;0.80;;;36.60;93.70;;;;;;5069688;28;20204;-80
2022/07/20 10:29:38;;;;;;;1.08;1.02;;;36.70;93.60;;;;;;5067609;28;20265;-80
2022/07/20 10:32:17;;;;;;;0.65;0.65;;;36.70;93.90;;;;;;5073493;28;20181;-80
2022/07/20 10:34:47;;;;;;;1.30;1.20;;;36.80;93.60;;;;;;5062819;28;20212;-80
2022/07/20 10:37:34;;;;;;;0.40;0.40;;;36.90;93.70;;;;;;5071722;28;20223;-80
2022/07/20 10:40:03;;;;;;;1.10;0.77;;;37.10;93.70;;;;;;5073237;28;20255;-80
2022/07/20 10:42:34;;;;;;;0.98;0.75;;;37.30;93.40;;;;;;5085771;28;20797;-81
2022/07/20 10:45:15;;;;;;;0.52;0.52;;;37.10;92.80;;;;;;5070060;28;20196;-80
2022/07/20 10:47:44;;;;;;;0.80;0.80;;;37.00;93.80;;;;;;5070706;28;20343;-80
2022/07/20 10:50:21;;;;;;;3.15;2.35;;;36.60;93.60;;;;;;5074404;28;20213;-81
2022/07/20 10:52:48;;;;;;;0.80;0.52;;;36.30;93.60;;;;;;5062605;28;20185;-80
2022/07/20 10:55:46;;;;;;;1.65;1.08;;;36.50;93.80;;;;;;5069898;28;20207;-80
2022/07/20 10:58:20;;;;;;;1.38;1.27;;;36.70;93.80;;;;;;5058405;28;20219;-80
2022/07/20 11:00:53;;;;;;;1.20;1.05;;;37.00;93.10;;;;;;5065024;28;20177;-80
2022/07/20 11:03:25;;;;;;;1.55;1.10;;;37.20;93.50;;;;;;5077116;28;20185;-80
2022/07/20 11:06:02;;;;;;;1.17;1.08;;;37.10;93.80;;;;;;5070728;28;20213;-81
2022/07/20 11:08:29;;;;;;;4.68;1.15;;;36.50;93.70;;;;;;5072998;28;20208;-80
2022/07/20 11:10:56;;;;;;;0.95;0.95;;;36.40;93.40;;;;;;5071772;28;20182;-80
2022/07/20 11:13:22;;;;;;;0.80;0.80;;;36.60;93.40;;;;;;5074397;28;20181;-81
2022/07/20 11:15:51;;;;;;;2.05;1.00;;;36.50;93.60;;;;;;5073205;28;20219;-80
2022/07/20 11:18:20;;;;;;;1.13;0.85;;;36.20;93.60;;;;;;5086813;28;20201;-80
2022/07/20 11:20:58;;;;;;;0.70;0.70;;;36.70;93.70;;;;;;5069051;28;20844;-80
2022/07/20 11:23:26;;;;;;;1.63;0.98;;;37.20;93.20;;;;;;5070565;28;20173;-80
2022/07/20 11:25:57;;;;;;;1.20;1.10;;;37.30;93.10;;;;;;5066547;28;20213;-81
2022/07/20 11:28:35;;;;;;;1.45;1.42;;;37.00;92.90;;;;;;5067241;28;20196;-81
2022/07/20 11:31:02;;;;;;;1.92;1.83;;;36.60;93.20;;;;;;5066549;28;20185;-80
2022/07/20 11:33:33;;;;;;;0.60;0.60;;;36.50;93.50;;;;;;5070013;28;20216;-80
2022/07/20 11:36:05;;;;;;;2.00;1.90;;;37.10;93.10;;;;;;5068389;28;20181;-81
2022/07/20 11:38:45;;;;;;;2.17;2.00;;;37.30;93.20;;;;;;5072605;28;20276;-80
2022/07/20 11:41:17;;;;;;;1.85;1.58;;;37.40;93.20;;;;;;5066509;28;20181;-80
2022/07/20 11:43:42;;;;;;;2.70;1.60;;;37.30;94.00;;;;;;5071837;28;20181;-80
2022/07/20 11:46:08;;;;;;;0.95;0.90;;;36.80;93.40;;;;;;5065758;28;20234;-80
2022/07/20 11:48:34;;;;;;;1.10;0.80;;;37.20;93.80;;;;;;5071551;28;20353;-80
2022/07/20 11:50:59;;;;;;;1.35;1.00;;;37.30;93.30;;;;;;5068959;28;20186;-80
2022/07/20 11:53:28;;;;;;;2.60;1.65;;;37.60;93.80;;;;;;5072884;28;20295;-80
2022/07/20 11:55:56;;;;;;;1.27;1.17;;;37.50;93.70;;;;;;5071481;28;20569;-81
2022/07/20 11:58:31;;;;;;;1.17;1.15;;;37.40;93.70;;;;;;5067305;28;20260;-80
2022/07/20 12:00:59;;;;;;;2.63;1.42;;;37.40;93.70;;;;;;5065388;28;20237;-80
2022/07/20 12:03:30;;;;;;;1.70;1.60;;;37.60;93.80;;;;;;5077216;28;20181;-80
2022/07/20 12:06:01;;;;;;;1.23;1.13;;;37.60;93.70;;;;;;5062520;28;20635;-80
2022/07/20 12:08:27;;;;;;;2.67;1.50;;;37.80;93.90;;;;;;5068590;28;20232;-80
2022/07/20 12:10:54;;;;;;;2.22;2.03;;;37.60;94.10;;;;;;5058146;28;20213;-80
2022/07/20 12:13:21;;;;;;;2.30;1.80;;;37.50;94.00;;;;;;5063281;28;20185;-80
2022/07/20 12:15:57;;;;;;;2.22;2.03;;;37.50;94.30;;;;;;5064849;28;20193;-80
2022/07/20 12:18:44;;;;;;;2.35;2.17;;;37.10;94.60;;;;;;5063419;28;20201;-80
2022/07/20 12:21:17;;;;;;;5.47;2.42;;;37.00;94.40;;;;;;5064869;28;20177;-80
2022/07/20 12:23:44;;;;;;;2.92;2.00;;;36.70;95.30;;;;;;5070405;28;20181;-80
2022/07/20 12:26:20;;;;;;;2.83;2.55;;;35.70;95.30;;;;;;5068683;28;20234;-80
2022/07/20 12:28:46;;;;;;;1.52;1.42;;;36.00;95.20;;;;;;5063191;28;20607;-80
2022/07/20 12:31:17;;;;;;;2.38;1.80;;;36.30;95.10;;;;;;5060937;28;20244;-80
2022/07/20 12:34:02;;;;;;;2.17;1.92;;;36.20;95.10;;;;;;5062364;28;20212;-80
2022/07/20 12:36:39;;;;;;;4.72;3.33;;;36.00;95.10;;;;;;5071553;28;20280;-80
2022/07/20 12:39:08;;;;;;;2.08;1.40;;;35.80;94.90;;;;;;5068503;28;20194;-80
2022/07/20 12:41:34;;;;;;;3.88;3.28;;;36.40;95.30;;;;;;5061120;28;21113;-80
2022/07/20 12:44:19;;;;;;;2.42;1.75;;;36.60;95.20;;;;;;5067576;28;20258;-80
2022/07/20 12:46:45;;;;;;;2.50;2.30;;;36.60;95.20;;;;;;5065562;28;20189;-80
2022/07/20 12:49:22;;;;;;;2.08;1.88;;;36.90;94.70;;;;;;5069796;28;20247;-80
2022/07/20 12:51:49;;;;;;;2.45;2.17;;;36.70;94.80;;;;;;5065353;28;20177;-80